Time;durP1;ratioP1;P1;durP2;ratioP2;P2;SDS_P1;SDS_P2;PMS_P1;PMS_P2;Temp;Humidity;BMP_temperature;BMP_pressure;BME280_temperature;BME280_humidity;BME280_pressure;Samples;Min_cycle;Max_cycle;Signal;HPM_P1;HPM_P2
2022/11/23 00:01:11;;;;;;;5.22;3.20;;;;;;;;;;2077765;28;20033;-68
2022/11/23 00:02:30;;;;;;;4.97;3.63;;;;;;;;;;2079357;28;20449;-68
2022/11/23 00:03:53;;;;;;;6.45;3.38;;;;;;;;;;2075565;28;20160;-67
2022/11/23 00:05:12;;;;;;;;;;;;;;;;;;2080640;28;20033;-67
2022/11/23 00:06:31;;;;;;;3.75;3.40;;;;;;;;;;2080507;28;20344;-67
2022/11/23 00:07:50;;;;;;;3.92;3.42;;;;;;;;;;2076833;28;20113;-67
2022/11/23 00:09:10;;;;;;;6.32;3.22;;;;;;;;;;2079367;28;20455;-67
2022/11/23 00:10:29;;;;;;;3.42;3.13;;;;;;;;;;2077315;28;20051;-67
2022/11/23 00:11:48;;;;;;;5.28;3.70;;;;;;;;;;2080453;28;20264;-67
2022/11/23 00:13:07;;;;;;;3.80;3.50;;;;;;;;;;2080455;28;20025;-68
2022/11/23 00:14:26;;;;;;;6.95;3.97;;;;;;;;;;2077996;28;20108;-67
2022/11/23 00:15:45;;;;;;;4.90;3.10;;;;;;;;;;2076379;28;20033;-67
2022/11/23 00:17:04;;;;;;;3.80;3.50;;;;;;;;;;2079547;28;20437;-67
2022/11/23 00:18:23;;;;;;;4.15;3.75;;;;;;;;;;2078158;28;20022;-67
2022/11/23 00:19:42;;;;;;;6.22;4.10;;;;;;;;;;2076971;28;20033;-68
2022/11/23 00:21:12;;;;;;;3.70;3.42;;;;;;;;;;2080215;28;20505;-67
2022/11/23 00:22:30;;;;;;;5.28;3.50;;;;;;;;;;2080097;28;20131;-67
2022/11/23 00:23:50;;;;;;;3.65;3.38;;;;;;;;;;2078404;28;20022;-67
2022/11/23 00:25:08;;;;;;;4.03;3.45;;;;;;;;;;2082710;28;20037;-67
2022/11/23 00:26:28;;;;;;;3.90;3.35;;;;;;;;;;2077662;28;20614;-67
2022/11/23 00:27:46;;;;;;;3.58;3.38;;;;;;;;;;2077018;28;20037;-68
2022/11/23 00:29:05;;;;;;;4.82;3.15;;;;;;;;;;2077835;28;20109;-67
2022/11/23 00:30:24;;;;;;;5.20;3.50;;;;;;;;;;2079346;28;20033;-68
2022/11/23 00:31:43;;;;;;;3.83;3.47;;;;;;;;;;2082216;28;20057;-67
2022/11/23 00:33:02;;;;;;;3.72;3.42;;;;;;;;;;2081898;28;20450;-67
2022/11/23 00:34:21;;;;;;;3.42;3.08;;;;;;;;;;2081925;28;21029;-68
2022/11/23 00:35:40;;;;;;;3.63;3.33;;;;;;;;;;2084293;28;20500;-68
2022/11/23 00:36:59;;;;;;;3.67;3.13;;;;;;;;;;2084576;28;20389;-67
2022/11/23 00:38:18;;;;;;;3.47;3.17;;;;;;;;;;2079204;28;20495;-67
2022/11/23 00:39:37;;;;;;;3.70;3.25;;;;;;;;;;2082294;28;20489;-68
2022/11/23 00:41:00;;;;;;;4.18;3.53;;;;;;;;;;2082520;28;20380;-67
2022/11/23 00:42:19;;;;;;;4.13;3.15;;;;;;;;;;2082732;28;20022;-68
2022/11/23 00:43:38;;;;;;;3.22;3.03;;;;;;;;;;2082703;28;20029;-67
2022/11/23 00:44:57;;;;;;;3.15;2.85;;;;;;;;;;2081399;28;20034;-67
2022/11/23 00:46:16;;;;;;;3.15;2.95;;;;;;;;;;2079682;28;20033;-67
2022/11/23 00:47:35;;;;;;;3.40;3.10;;;;;;;;;;2082327;28;20421;-67
2022/11/23 00:48:55;;;;;;;2.95;2.65;;;;;;;;;;2077179;28;20133;-67
2022/11/23 00:50:14;;;;;;;3.47;3.15;;;;;;;;;;2080903;28;20084;-67
2022/11/23 00:51:34;;;;;;;3.10;2.90;;;;;;;;;;2083182;28;20030;-68
2022/11/23 00:52:53;;;;;;;3.00;2.80;;;;;;;;;;2083576;28;20030;-67
2022/11/23 00:54:12;;;;;;;3.72;3.33;;;;;;;;;;2079605;28;20113;-68
2022/11/23 00:55:31;;;;;;;2.95;2.55;;;;;;;;;;2082259;28;20456;-67
2022/11/23 00:56:50;;;;;;;3.08;2.75;;;;;;;;;;2081466;28;20120;-68
2022/11/23 00:58:09;;;;;;;2.90;2.58;;;;;;;;;;2082580;28;20021;-67
2022/11/23 00:59:28;;;;;;;2.88;2.47;;;;;;;;;;2079082;28;20041;-67
2022/11/23 01:00:47;;;;;;;2.90;2.70;;;;;;;;;;2078440;28;20025;-67
2022/11/23 01:02:06;;;;;;;2.80;2.60;;;;;;;;;;2083340;28;20381;-67
2022/11/23 01:03:25;;;;;;;3.25;2.50;;;;;;;;;;2082019;28;20978;-67
2022/11/23 01:04:44;;;;;;;2.58;2.33;;;;;;;;;;2081791;28;20069;-67
2022/11/23 01:06:11;;;;;;;3.10;2.53;;;;;;;;;;2083133;28;20033;-67
2022/11/23 01:07:29;;;;;;;3.55;2.50;;;;;;;;;;2081671;28;20029;-67
2022/11/23 01:08:53;;;;;;;2.90;2.70;;;;;;;;;;2083607;28;20033;-67
2022/11/23 01:10:11;;;;;;;2.78;2.58;;;;;;;;;;2079185;28;20428;-67
2022/11/23 01:11:31;;;;;;;2.83;2.40;;;;;;;;;;2082110;28;20037;-67
2022/11/23 01:12:50;;;;;;;2.95;2.70;;;;;;;;;;2082614;28;20075;-67
2022/11/23 01:14:09;;;;;;;2.88;2.67;;;;;;;;;;2081679;28;20389;-67
2022/11/23 01:15:27;;;;;;;3.22;2.70;;;;;;;;;;2075635;28;20034;-67
2022/11/23 01:16:46;;;;;;;3.78;3.25;;;;;;;;;;2083261;28;20457;-68
2022/11/23 01:18:05;;;;;;;2.65;2.45;;;;;;;;;;2079669;28;20060;-67
2022/11/23 01:19:25;;;;;;;2.88;2.53;;;;;;;;;;2081872;28;20033;-67
2022/11/23 01:20:43;;;;;;;2.60;2.40;;;;;;;;;;2082221;28;20030;-67
2022/11/23 01:22:02;;;;;;;3.28;2.80;;;;;;;;;;2083529;28;20029;-68
2022/11/23 01:23:21;;;;;;;3.65;2.88;;;;;;;;;;2082334;28;20037;-68
2022/11/23 01:24:40;;;;;;;2.78;2.58;;;;;;;;;;2080600;28;20119;-68
2022/11/23 01:26:09;;;;;;;3.60;2.50;;;;;;;;;;2082923;28;20033;-69
2022/11/23 01:27:28;;;;;;;2.67;2.38;;;;;;;;;;2081776;28;20033;-68
2022/11/23 01:28:47;;;;;;;2.65;2.35;;;;;;;;;;2080897;28;20465;-68
2022/11/23 01:30:06;;;;;;;3.53;2.67;;;;;;;;;;2078502;28;20030;-68
2022/11/23 01:31:26;;;;;;;3.60;2.67;;;;;;;;;;2083133;28;20393;-68
2022/11/23 01:32:45;;;;;;;3.28;2.90;;;;;;;;;;2083014;28;20021;-68
2022/11/23 01:34:04;;;;;;;2.67;2.47;;;;;;;;;;2075339;28;20116;-67
2022/11/23 01:35:23;;;;;;;3.35;3.15;;;;;;;;;;2080995;28;20488;-68
2022/11/23 01:36:42;;;;;;;4.47;3.05;;;;;;;;;;2083704;28;20033;-68
2022/11/23 01:38:01;;;;;;;4.57;4.18;;;;;;;;;;2079635;28;20025;-67
2022/11/23 01:39:20;;;;;;;9.35;6.78;;;;;;;;;;2084018;28;20041;-67
2022/11/23 01:40:42;;;;;;;12.70;7.80;;;;;;;;;;2081709;28;20032;-67
2022/11/23 01:42:05;;;;;;;3.67;3.38;;;;;;;;;;2083842;28;20063;-68
2022/11/23 01:43:24;;;;;;;3.42;3.13;;;;;;;;;;2082812;28;20029;-67
2022/11/23 01:44:43;;;;;;;12.10;8.52;;;;;;;;;;2081365;28;20029;-68
2022/11/23 01:46:03;;;;;;;3.35;3.05;;;;;;;;;;2078504;28;20041;-68
2022/11/23 01:47:21;;;;;;;4.47;2.72;;;;;;;;;;2083497;28;20034;-68
2022/11/23 01:48:46;;;;;;;2.60;2.30;;;;;;;;;;2083766;28;20042;-68
2022/11/23 01:50:05;;;;;;;2.13;1.90;;;;;;;;;;2078566;28;20045;-68
2022/11/23 01:51:26;;;;;;;3.10;2.40;;;;;;;;;;2081207;28;20061;-67
2022/11/23 01:52:45;;;;;;;2.38;2.17;;;;;;;;;;2081920;28;20111;-67
2022/11/23 01:54:08;;;;;;;2.83;2.40;;;;;;;;;;2080142;28;20022;-68
2022/11/23 01:55:27;;;;;;;3.70;2.53;;;;;;;;;;2080765;28;20576;-67
2022/11/23 01:56:49;;;;;;;2.83;2.33;;;;;;;;;;2078889;28;20461;-68
2022/11/23 01:58:09;;;;;;;2.65;2.45;;;;;;;;;;2083408;28;20474;-67
2022/11/23 01:59:29;;;;;;;3.83;2.45;;;;;;;;;;2082400;28;20037;-68
2022/11/23 02:00:48;;;;;;;2.42;2.03;;;;;;;;;;2079770;28;20061;-68
2022/11/23 02:02:08;;;;;;;2.90;1.90;;;;;;;;;;2080572;28;20394;-68
2022/11/23 02:03:28;;;;;;;2.95;2.03;;;;;;;;;;2082970;28;20034;-67
2022/11/23 02:04:48;;;;;;;3.78;1.77;;;;;;;;;;2083533;28;20033;-68
2022/11/23 02:06:10;;;;;;;2.17;1.98;;;;;;;;;;2082615;28;20033;-69
2022/11/23 02:07:30;;;;;;;3.13;2.08;;;;;;;;;;2083628;28;20445;-68
2022/11/23 02:08:49;;;;;;;3.53;1.80;;;;;;;;;;2081376;28;20049;-68
2022/11/23 02:10:08;;;;;;;1.95;1.85;;;;;;;;;;2082283;28;20041;-68
2022/11/23 02:11:27;;;;;;;1.80;1.70;;;;;;;;;;2083005;28;20033;-68
2022/11/23 02:12:46;;;;;;;2.70;2.17;;;;;;;;;;2083287;28;20026;-67
2022/11/23 02:14:05;;;;;;;1.85;1.60;;;;;;;;;;2082421;28;20022;-68
2022/11/23 02:15:24;;;;;;;2.13;1.92;;;;;;;;;;2078933;28;20044;-67
2022/11/23 02:16:43;;;;;;;1.85;1.63;;;;;;;;;;2078662;28;20034;-67
2022/11/23 02:18:04;;;;;;;2.15;1.60;;;;;;;;;;2082839;28;20022;-67
2022/11/23 02:19:46;;;;;;;2.35;1.77;;;;;;;;;;2082894;28;20030;-68
2022/11/23 02:21:05;;;;;;;1.83;1.70;;;;;;;;;;2082179;28;20030;-67
2022/11/23 02:22:39;;;;;;;4.28;1.77;;;;;;;;;;2080490;28;20025;-68
2022/11/23 02:24:25;;;;;;;3.47;1.77;;;;;;;;;;2082824;28;20034;-67
2022/11/23 02:25:46;;;;;;;2.10;1.52;;;;;;;;;;2084164;28;20049;-67
2022/11/23 02:27:06;;;;;;;1.58;1.40;;;;;;;;;;2078004;28;20034;-67
2022/11/23 02:28:28;;;;;;;1.92;1.40;;;;;;;;;;2082058;28;20029;-68
2022/11/23 02:29:47;;;;;;;1.70;1.42;;;;;;;;;;2082827;28;20038;-67
2022/11/23 02:31:06;;;;;;;2.53;1.63;;;;;;;;;;2082103;28;20128;-68
2022/11/23 02:32:26;;;;;;;1.60;1.50;;;;;;;;;;2082639;28;20030;-68
2022/11/23 02:33:44;;;;;;;3.05;1.55;;;;;;;;;;2083625;28;20025;-68
2022/11/23 02:35:03;;;;;;;1.73;1.55;;;;;;;;;;2084823;28;20033;-68
2022/11/23 02:36:39;;;;;;;2.00;1.77;;;;;;;;;;2082642;28;20116;-68
2022/11/23 02:37:59;;;;;;;2.13;1.20;;;;;;;;;;2077590;28;20021;-68
2022/11/23 02:39:26;;;;;;;1.63;1.52;;;;;;;;;;2082326;28;20381;-67
2022/11/23 02:40:45;;;;;;;1.55;1.15;;;;;;;;;;2083408;28;20033;-67
2022/11/23 02:42:04;;;;;;;1.98;1.48;;;;;;;;;;2082979;28;20445;-67
2022/11/23 02:43:23;;;;;;;2.20;1.52;;;;;;;;;;2084278;28;20036;-67
2022/11/23 02:44:59;;;;;;;1.75;1.60;;;;;;;;;;2083054;28;20064;-67
2022/11/23 02:46:18;;;;;;;1.55;1.45;;;;;;;;;;2082245;28;20025;-67
2022/11/23 02:47:37;;;;;;;1.90;1.30;;;;;;;;;;2079174;28;20481;-67
2022/11/23 02:48:56;;;;;;;2.30;1.30;;;;;;;;;;2084474;28;20037;-67
2022/11/23 02:50:15;;;;;;;1.02;1.02;;;;;;;;;;2080602;28;20057;-67
2022/11/23 02:51:34;;;;;;;1.17;1.08;;;;;;;;;;2080078;28;20112;-67
2022/11/23 02:52:53;;;;;;;1.30;1.20;;;;;;;;;;2084907;28;20025;-67
2022/11/23 02:54:12;;;;;;;1.48;1.38;;;;;;;;;;2081817;28;20037;-67
2022/11/23 02:55:31;;;;;;;1.40;1.30;;;;;;;;;;2083072;28;20033;-67
2022/11/23 02:56:50;;;;;;;1.92;1.55;;;;;;;;;;2082033;28;20101;-68
2022/11/23 02:58:09;;;;;;;1.00;1.00;;;;;;;;;;2083741;28;20474;-67
2022/11/23 02:59:31;;;;;;;1.90;1.35;;;;;;;;;;2081831;28;20033;-67
2022/11/23 03:00:50;;;;;;;1.27;1.17;;;;;;;;;;2080984;28;20045;-67
2022/11/23 03:02:09;;;;;;;2.28;1.55;;;;;;;;;;2082643;28;20033;-67
2022/11/23 03:03:28;;;;;;;1.27;1.17;;;;;;;;;;2086574;28;20029;-67
2022/11/23 03:04:47;;;;;;;2.47;1.23;;;;;;;;;;2084097;28;20458;-66
2022/11/23 03:06:06;;;;;;;1.35;1.25;;;;;;;;;;2084061;28;20033;-66
2022/11/23 03:07:24;;;;;;;2.22;1.50;;;;;;;;;;2082350;28;20050;-67
2022/11/23 03:08:43;;;;;;;1.35;1.23;;;;;;;;;;2082627;28;20037;-67
2022/11/23 03:10:03;;;;;;;1.52;1.38;;;;;;;;;;2082536;28;20033;-66
2022/11/23 03:11:22;;;;;;;2.15;1.50;;;;;;;;;;2080163;28;21805;-67
2022/11/23 03:12:41;;;;;;;1.55;1.25;;;;;;;;;;2083823;28;20038;-66
2022/11/23 03:14:00;;;;;;;2.97;1.38;;;;;;;;;;2082560;28;20025;-66
2022/11/23 03:15:19;;;;;;;1.20;1.10;;;;;;;;;;2083754;28;20025;-66
2022/11/23 03:16:38;;;;;;;1.85;1.40;;;;;;;;;;2078166;28;20490;-67
2022/11/23 03:17:57;;;;;;;2.78;1.42;;;;;;;;;;2085025;28;20602;-67
2022/11/23 03:19:16;;;;;;;1.40;1.20;;;;;;;;;;2084231;28;20022;-66
2022/11/23 03:20:35;;;;;;;3.25;1.50;;;;;;;;;;2083599;28;20033;-66
2022/11/23 03:21:55;;;;;;;1.90;1.20;;;;;;;;;;2082606;28;20072;-67
2022/11/23 03:23:14;;;;;;;0.98;0.98;;;;;;;;;;2084728;28;20036;-66
2022/11/23 03:24:33;;;;;;;1.70;1.40;;;;;;;;;;2085357;28;20037;-66
2022/11/23 03:25:55;;;;;;;1.40;1.30;;;;;;;;;;2082907;28;20037;-66
2022/11/23 03:27:14;;;;;;;;;;;;;;;;;;2084190;28;20041;-66
2022/11/23 03:28:34;;;;;;;2.00;1.10;;;;;;;;;;2082965;28;20381;-67
2022/11/23 03:29:53;;;;;;;1.48;1.38;;;;;;;;;;2084543;28;20045;-66
2022/11/23 03:31:11;;;;;;;1.55;1.45;;;;;;;;;;2081518;28;20037;-66
2022/11/23 03:32:30;;;;;;;2.70;1.20;;;;;;;;;;2081904;28;20147;-66
2022/11/23 03:33:50;;;;;;;1.90;1.27;;;;;;;;;;2082507;28;20033;-67
2022/11/23 03:35:08;;;;;;;1.35;1.25;;;;;;;;;;2083019;28;20025;-67
2022/11/23 03:36:28;;;;;;;2.63;1.40;;;;;;;;;;2083373;28;20501;-67
2022/11/23 03:37:46;;;;;;;1.80;1.25;;;;;;;;;;2083674;28;20037;-68
2022/11/23 03:39:06;;;;;;;1.40;1.30;;;;;;;;;;2084887;28;20025;-68
2022/11/23 03:40:24;;;;;;;1.67;1.58;;;;;;;;;;2084800;28;20473;-68
2022/11/23 03:41:43;;;;;;;3.60;1.40;;;;;;;;;;2083126;28;20037;-67
2022/11/23 03:43:02;;;;;;;1.75;1.65;;;;;;;;;;2079280;28;20041;-67
2022/11/23 03:44:21;;;;;;;1.98;1.70;;;;;;;;;;2082920;28;20025;-67
2022/11/23 03:45:40;;;;;;;2.47;1.58;;;;;;;;;;2080744;28;20041;-68
2022/11/23 03:46:59;;;;;;;1.85;1.13;;;;;;;;;;2081926;28;20029;-67
2022/11/23 03:48:18;;;;;;;1.30;1.20;;;;;;;;;;2084771;28;20033;-67
2022/11/23 03:49:37;;;;;;;4.57;2.33;;;;;;;;;;2084468;28;20033;-67
2022/11/23 03:50:56;;;;;;;1.63;1.52;;;;;;;;;;2082430;28;20038;-67
2022/11/23 03:52:15;;;;;;;1.38;1.27;;;;;;;;;;2081042;28;20025;-67
2022/11/23 03:53:34;;;;;;;1.75;1.30;;;;;;;;;;2082856;28;20501;-67
2022/11/23 03:54:53;;;;;;;1.65;1.55;;;;;;;;;;2084960;28;20033;-67
2022/11/23 03:56:12;;;;;;;1.38;1.25;;;;;;;;;;2080606;28;20061;-67
2022/11/23 03:57:31;;;;;;;1.52;1.42;;;;;;;;;;2079630;28;20038;-67
2022/11/23 03:58:50;;;;;;;1.63;1.30;;;;;;;;;;2083594;28;20025;-67
2022/11/23 04:00:09;;;;;;;1.52;1.38;;;;;;;;;;2076767;28;20052;-67
2022/11/23 04:01:28;;;;;;;1.33;1.23;;;;;;;;;;2081336;28;20025;-66
2022/11/23 04:02:47;;;;;;;1.58;1.40;;;;;;;;;;2080747;28;20037;-67
2022/11/23 04:04:06;;;;;;;1.73;1.38;;;;;;;;;;2083749;28;20401;-67
2022/11/23 04:05:26;;;;;;;1.48;1.38;;;;;;;;;;2084023;28;20033;-67
2022/11/23 04:06:45;;;;;;;1.73;1.20;;;;;;;;;;2083127;28;20025;-67
2022/11/23 04:08:04;;;;;;;1.80;1.48;;;;;;;;;;2081520;28;20033;-67
2022/11/23 04:09:23;;;;;;;1.58;1.30;;;;;;;;;;2083538;28;20037;-66
2022/11/23 04:10:42;;;;;;;1.45;1.35;;;;;;;;;;2084318;28;20464;-67
2022/11/23 04:12:01;;;;;;;1.35;1.25;;;;;;;;;;2083154;28;20100;-67
2022/11/23 04:13:20;;;;;;;1.55;1.45;;;;;;;;;;2080251;28;20025;-67
2022/11/23 04:14:39;;;;;;;4.88;1.80;;;;;;;;;;2079646;28;20080;-67
2022/11/23 04:15:58;;;;;;;2.17;1.98;;;;;;;;;;2081293;28;20025;-66
2022/11/23 04:17:17;;;;;;;2.03;1.40;;;;;;;;;;2079377;28;20029;-67
2022/11/23 04:18:36;;;;;;;2.05;1.48;;;;;;;;;;2082872;28;20116;-67
2022/11/23 04:19:55;;;;;;;2.67;1.67;;;;;;;;;;2083805;28;20033;-67
2022/11/23 04:21:14;;;;;;;1.40;1.30;;;;;;;;;;2081262;28;20038;-67
2022/11/23 04:22:33;;;;;;;1.27;1.17;;;;;;;;;;2081695;28;20033;-67
2022/11/23 04:23:52;;;;;;;1.83;1.67;;;;;;;;;;2083932;28;20037;-67
2022/11/23 04:25:11;;;;;;;1.83;1.35;;;;;;;;;;2084567;28;20029;-69
2022/11/23 04:26:30;;;;;;;1.85;1.50;;;;;;;;;;2081627;28;20112;-66
2022/11/23 04:27:49;;;;;;;1.40;1.30;;;;;;;;;;2082635;28;20394;-67
2022/11/23 04:29:08;;;;;;;1.50;1.40;;;;;;;;;;2083437;28;20025;-67
2022/11/23 04:30:27;;;;;;;1.60;1.50;;;;;;;;;;2081470;28;20691;-66
2022/11/23 04:31:46;;;;;;;2.67;1.60;;;;;;;;;;2080336;28;20127;-66
2022/11/23 04:33:05;;;;;;;1.25;1.15;;;;;;;;;;2081231;28;20037;-67
2022/11/23 04:34:23;;;;;;;1.40;1.30;;;;;;;;;;2084619;28;20037;-67
2022/11/23 04:35:43;;;;;;;2.30;1.60;;;;;;;;;;2081698;28;20029;-67
2022/11/23 04:37:01;;;;;;;2.25;1.30;;;;;;;;;;2081401;28;20730;-66
2022/11/23 04:38:20;;;;;;;1.85;1.40;;;;;;;;;;2082320;28;20493;-66
2022/11/23 04:39:39;;;;;;;1.35;1.20;;;;;;;;;;2083386;28;20060;-66
2022/11/23 04:40:59;;;;;;;1.52;1.42;;;;;;;;;;2084636;28;20034;-67
2022/11/23 04:42:17;;;;;;;2.63;1.50;;;;;;;;;;2082305;28;20444;-66
2022/11/23 04:43:36;;;;;;;1.38;1.27;;;;;;;;;;2082097;28;20107;-66
2022/11/23 04:44:56;;;;;;;1.65;1.52;;;;;;;;;;2083105;28;20029;-66
2022/11/23 04:46:15;;;;;;;1.92;1.50;;;;;;;;;;2082148;28;20017;-67
2022/11/23 04:47:34;;;;;;;1.73;1.50;;;;;;;;;;2082658;28;20064;-66
2022/11/23 04:48:53;;;;;;;1.40;1.30;;;;;;;;;;2082488;28;20034;-67
2022/11/23 04:50:12;;;;;;;1.48;1.35;;;;;;;;;;2081826;28;20115;-67
2022/11/23 04:51:31;;;;;;;1.63;1.48;;;;;;;;;;2083854;28;20576;-67
2022/11/23 04:52:50;;;;;;;1.50;1.40;;;;;;;;;;2081804;28;20029;-66
2022/11/23 04:54:09;;;;;;;1.50;1.40;;;;;;;;;;2078992;28;20105;-66
2022/11/23 04:55:28;;;;;;;2.55;1.63;;;;;;;;;;2081043;28;20433;-66
2022/11/23 04:56:47;;;;;;;1.40;1.23;;;;;;;;;;2080647;28;20033;-67
2022/11/23 04:58:06;;;;;;;3.13;1.23;;;;;;;;;;2081171;28;20025;-69
2022/11/23 04:59:25;;;;;;;1.63;1.52;;;;;;;;;;2081950;28;20083;-69
2022/11/23 05:00:43;;;;;;;1.80;1.52;;;;;;;;;;2080666;28;20045;-67
2022/11/23 05:02:02;;;;;;;2.28;1.50;;;;;;;;;;2082518;28;20025;-67
2022/11/23 05:03:22;;;;;;;1.65;1.20;;;;;;;;;;2081854;28;20041;-67
2022/11/23 05:04:41;;;;;;;2.55;1.60;;;;;;;;;;2079858;28;20049;-67
2022/11/23 05:06:00;;;;;;;1.50;1.30;;;;;;;;;;2078994;28;20029;-67
2022/11/23 05:07:20;;;;;;;2.17;1.40;;;;;;;;;;2083183;28;20037;-67
2022/11/23 05:08:39;;;;;;;1.70;1.60;;;;;;;;;;2081606;28;20036;-65
2022/11/23 05:09:58;;;;;;;1.83;1.50;;;;;;;;;;2082169;28;20450;-66
2022/11/23 05:11:17;;;;;;;1.63;1.45;;;;;;;;;;2082845;28;20087;-67
2022/11/23 05:12:36;;;;;;;1.50;1.40;;;;;;;;;;2079309;28;20120;-67
2022/11/23 05:13:54;;;;;;;2.03;1.77;;;;;;;;;;2081874;28;20502;-67
2022/11/23 05:15:13;;;;;;;1.55;1.45;;;;;;;;;;2081371;28;20108;-69
2022/11/23 05:16:32;;;;;;;3.88;1.60;;;;;;;;;;2082221;28;20036;-67
2022/11/23 05:17:51;;;;;;;2.67;1.92;;;;;;;;;;2081225;28;20025;-67
2022/11/23 05:19:10;;;;;;;1.65;1.40;;;;;;;;;;2079011;28;20022;-66
2022/11/23 05:20:29;;;;;;;1.80;1.65;;;;;;;;;;2083737;28;20116;-67
2022/11/23 05:21:48;;;;;;;1.70;1.60;;;;;;;;;;2081488;28;20033;-67
2022/11/23 05:23:07;;;;;;;2.05;1.60;;;;;;;;;;2077037;28;20113;-66
2022/11/23 05:24:26;;;;;;;1.73;1.63;;;;;;;;;;2080016;28;20046;-66
2022/11/23 05:25:45;;;;;;;1.80;1.70;;;;;;;;;;2083489;28;20026;-66
2022/11/23 05:27:04;;;;;;;1.83;1.73;;;;;;;;;;2080878;28;20026;-66
2022/11/23 05:28:23;;;;;;;2.33;2.00;;;;;;;;;;2082539;28;20034;-66
2022/11/23 05:29:42;;;;;;;1.90;1.80;;;;;;;;;;2080284;28;20038;-66
2022/11/23 05:31:01;;;;;;;1.60;1.50;;;;;;;;;;2079927;28;20029;-66
2022/11/23 05:32:20;;;;;;;1.88;1.70;;;;;;;;;;2082603;28;20033;-66
2022/11/23 05:33:39;;;;;;;2.40;2.10;;;;;;;;;;2080955;28;20033;-66
2022/11/23 05:34:58;;;;;;;3.17;1.90;;;;;;;;;;2081939;28;20061;-66
2022/11/23 05:36:17;;;;;;;1.75;1.65;;;;;;;;;;2081476;28;20029;-66
2022/11/23 05:37:36;;;;;;;5.63;1.85;;;;;;;;;;2081905;28;20025;-68
2022/11/23 05:38:55;;;;;;;4.95;1.98;;;;;;;;;;2077829;28;20022;-68
2022/11/23 05:40:14;;;;;;;1.67;1.58;;;;;;;;;;2079445;28;20407;-68
2022/11/23 05:41:33;;;;;;;4.10;2.10;;;;;;;;;;2080033;28;20025;-68
2022/11/23 05:42:56;;;;;;;1.63;1.52;;;;;;;;;;2082225;28;20690;-68
2022/11/23 05:44:15;;;;;;;;;;;;;;;;;;2081870;28;20025;-69
2022/11/23 05:45:34;;;;;;;2.00;1.80;;;;;;;;;;2081823;28;19913;-68
2022/11/23 05:46:53;;;;;;;2.05;1.90;;;;;;;;;;2079531;28;20021;-66
2022/11/23 05:48:12;;;;;;;2.22;1.98;;;;;;;;;;2079514;28;20033;-69
2022/11/23 05:49:31;;;;;;;2.30;1.77;;;;;;;;;;2078727;28;20037;-66
2022/11/23 05:50:50;;;;;;;2.60;2.30;;;;;;;;;;2076460;28;20033;-67
2022/11/23 05:52:09;;;;;;;2.40;2.20;;;;;;;;;;2078442;28;20029;-67
2022/11/23 05:53:29;;;;;;;2.20;2.00;;;;;;;;;;2076318;28;20037;-67
2022/11/23 05:54:48;;;;;;;2.30;1.92;;;;;;;;;;2081583;28;20080;-67
2022/11/23 05:56:07;;;;;;;2.20;2.00;;;;;;;;;;2080781;28;20033;-67
2022/11/23 05:57:25;;;;;;;3.63;2.10;;;;;;;;;;2078979;28;20017;-67
2022/11/23 05:58:44;;;;;;;2.00;1.90;;;;;;;;;;2082518;28;20042;-67
2022/11/23 06:00:04;;;;;;;2.50;2.30;;;;;;;;;;2077619;28;20037;-67
2022/11/23 06:01:23;;;;;;;2.72;2.50;;;;;;;;;;2080646;28;20029;-67
2022/11/23 06:02:42;;;;;;;2.55;2.38;;;;;;;;;;2082671;28;20037;-67
2022/11/23 06:04:01;;;;;;;2.40;2.20;;;;;;;;;;2081827;28;20592;-68
2022/11/23 06:05:20;;;;;;;2.90;2.70;;;;;;;;;;2082755;28;20116;-67
2022/11/23 06:06:39;;;;;;;2.88;2.63;;;;;;;;;;2081330;28;20112;-67
2022/11/23 06:07:58;;;;;;;4.38;2.75;;;;;;;;;;2081714;28;20033;-67
2022/11/23 06:09:17;;;;;;;2.90;2.70;;;;;;;;;;2081331;28;20047;-67
2022/11/23 06:10:36;;;;;;;2.67;2.47;;;;;;;;;;2084515;28;20033;-67
2022/11/23 06:11:55;;;;;;;3.08;2.70;;;;;;;;;;2081482;28;20033;-68
2022/11/23 06:13:13;;;;;;;3.33;3.00;;;;;;;;;;2085236;28;20029;-67
2022/11/23 06:14:32;;;;;;;3.67;2.80;;;;;;;;;;2077342;28;20052;-67
2022/11/23 06:15:52;;;;;;;3.03;2.83;;;;;;;;;;2075719;28;20038;-67
2022/11/23 06:17:10;;;;;;;4.53;3.05;;;;;;;;;;2077779;28;20029;-67
2022/11/23 06:18:29;;;;;;;3.08;2.65;;;;;;;;;;2086124;28;20056;-67
2022/11/23 06:19:48;;;;;;;3.38;3.08;;;;;;;;;;2084050;28;20018;-68
2022/11/23 06:21:07;;;;;;;4.43;2.92;;;;;;;;;;2084196;28;20041;-68
2022/11/23 06:22:26;;;;;;;5.13;3.30;;;;;;;;;;2081574;28;20041;-68
2022/11/23 06:23:48;;;;;;;4.05;3.03;;;;;;;;;;2081021;28;20025;-68
2022/11/23 06:25:07;;;;;;;3.40;3.00;;;;;;;;;;2082674;28;20033;-68
2022/11/23 06:26:26;;;;;;;3.30;3.00;;;;;;;;;;2078424;28;20271;-68
2022/11/23 06:27:55;;;;;;;4.75;3.40;;;;;;;;;;2082418;28;20022;-68
2022/11/23 06:29:14;;;;;;;4.53;3.08;;;;;;;;;;2078573;28;20037;-69
2022/11/23 06:30:32;;;;;;;3.95;3.30;;;;;;;;;;2081003;28;20505;-68
2022/11/23 06:31:51;;;;;;;3.38;3.10;;;;;;;;;;2083037;28;20478;-68
2022/11/23 06:33:10;;;;;;;5.68;3.67;;;;;;;;;;2084670;28;20017;-68
2022/11/23 06:34:29;;;;;;;4.32;3.70;;;;;;;;;;2082509;28;20030;-68
2022/11/23 06:35:55;;;;;;;3.97;3.55;;;;;;;;;;2083340;28;20734;-68
2022/11/23 06:37:15;;;;;;;4.18;3.75;;;;;;;;;;2084171;28;20029;-68
2022/11/23 06:38:34;;;;;;;4.47;4.05;;;;;;;;;;2084095;28;20025;-68
2022/11/23 06:39:52;;;;;;;6.15;3.83;;;;;;;;;;2076881;28;20037;-68
2022/11/23 06:41:11;;;;;;;4.80;4.38;;;;;;;;;;2080975;28;20041;-68
2022/11/23 06:42:30;;;;;;;4.70;4.20;;;;;;;;;;2083055;28;20041;-68
2022/11/23 06:43:49;;;;;;;5.47;4.97;;;;;;;;;;2083689;28;20021;-68
2022/11/23 06:45:08;;;;;;;5.63;4.50;;;;;;;;;;2080916;28;20061;-68
2022/11/23 06:46:28;;;;;;;23.25;12.35;;;;;;;;;;2084182;28;20065;-68
2022/11/23 06:47:47;;;;;;;10.63;4.35;;;;;;;;;;2083165;28;20037;-67
2022/11/23 06:49:06;;;;;;;7.07;3.95;;;;;;;;;;2080952;28;20449;-68
2022/11/23 06:50:24;;;;;;;28.10;15.05;;;;;;;;;;2079547;28;20057;-68
2022/11/23 06:51:44;;;;;;;13.15;7.90;;;;;;;;;;2080223;28;20541;-68
2022/11/23 06:53:03;;;;;;;9.73;6.00;;;;;;;;;;2082103;28;20116;-67
2022/11/23 06:54:22;;;;;;;5.40;4.85;;;;;;;;;;2082027;28;20021;-67
2022/11/23 06:55:42;;;;;;;5.70;4.40;;;;;;;;;;2080365;28;20453;-66
2022/11/23 06:57:01;;;;;;;6.85;5.43;;;;;;;;;;2077854;28;20108;-66
2022/11/23 06:58:20;;;;;;;4.82;4.25;;;;;;;;;;2079339;28;20113;-67
2022/11/23 06:59:39;;;;;;;5.85;4.10;;;;;;;;;;2073827;28;20038;-67
2022/11/23 07:01:02;;;;;;;5.03;4.28;;;;;;;;;;2078908;28;20041;-66
2022/11/23 07:02:21;;;;;;;5.43;4.82;;;;;;;;;;2078416;28;21148;-67
2022/11/23 07:03:40;;;;;;;9.10;4.65;;;;;;;;;;2082318;28;20033;-66
2022/11/23 07:04:59;;;;;;;4.80;4.40;;;;;;;;;;2083604;28;20030;-67
2022/11/23 07:06:18;;;;;;;4.30;3.90;;;;;;;;;;2083362;28;20037;-67
2022/11/23 07:07:37;;;;;;;4.45;4.05;;;;;;;;;;2083622;28;20037;-67
2022/11/23 07:08:56;;;;;;;5.03;4.28;;;;;;;;;;2085068;28;20033;-67
2022/11/23 07:10:15;;;;;;;6.57;4.57;;;;;;;;;;2084041;28;20021;-68
2022/11/23 07:11:34;;;;;;;5.18;4.70;;;;;;;;;;2083181;28;20025;-67
2022/11/23 07:12:53;;;;;;;4.63;4.32;;;;;;;;;;2083994;28;20025;-67
2022/11/23 07:14:12;;;;;;;5.18;4.30;;;;;;;;;;2084523;28;20381;-67
2022/11/23 07:15:31;;;;;;;5.30;4.20;;;;;;;;;;2083557;28;21598;-67
2022/11/23 07:16:50;;;;;;;7.18;5.50;;;;;;;;;;2082804;28;20521;-67
2022/11/23 07:18:10;;;;;;;7.00;5.15;;;;;;;;;;2084212;28;20053;-68
2022/11/23 07:19:29;;;;;;;5.88;5.00;;;;;;;;;;2084278;28;20025;-68
2022/11/23 07:20:48;;;;;;;6.20;4.78;;;;;;;;;;2083683;28;20125;-67
2022/11/23 07:22:07;;;;;;;5.72;4.60;;;;;;;;;;2081213;28;20034;-67
2022/11/23 07:23:26;;;;;;;5.95;4.68;;;;;;;;;;2084985;28;20041;-67
2022/11/23 07:24:45;;;;;;;5.22;4.72;;;;;;;;;;2083705;28;20386;-67
2022/11/23 07:26:04;;;;;;;5.53;5.07;;;;;;;;;;2082272;28;20025;-67
2022/11/23 07:27:23;;;;;;;6.95;4.95;;;;;;;;;;2085150;28;20029;-67
2022/11/23 07:28:42;;;;;;;5.35;4.88;;;;;;;;;;2081339;28;20058;-67
2022/11/23 07:30:01;;;;;;;5.38;4.97;;;;;;;;;;2083145;28;20049;-67
2022/11/23 07:31:21;;;;;;;6.93;5.07;;;;;;;;;;2083335;28;20042;-67
2022/11/23 07:32:40;;;;;;;6.22;5.63;;;;;;;;;;2082096;28;20022;-67
2022/11/23 07:33:59;;;;;;;5.25;4.75;;;;;;;;;;2083941;28;20507;-67
2022/11/23 07:35:18;;;;;;;7.78;5.28;;;;;;;;;;2084012;28;20029;-67
2022/11/23 07:36:37;;;;;;;9.93;5.55;;;;;;;;;;2084529;28;20489;-67
2022/11/23 07:37:56;;;;;;;5.72;5.18;;;;;;;;;;2084412;28;20450;-67
2022/11/23 07:39:15;;;;;;;7.25;5.35;;;;;;;;;;2084863;28;20021;-67
2022/11/23 07:40:38;;;;;;;6.35;5.75;;;;;;;;;;2084198;28;20036;-68
2022/11/23 07:41:57;;;;;;;6.32;5.40;;;;;;;;;;2084279;28;20036;-67
2022/11/23 07:43:16;;;;;;;6.80;5.28;;;;;;;;;;2082803;28;20037;-68
2022/11/23 07:44:35;;;;;;;5.60;5.18;;;;;;;;;;2083058;28;20053;-69
2022/11/23 07:45:57;;;;;;;5.82;4.68;;;;;;;;;;2082036;28;20033;-68
2022/11/23 07:47:16;;;;;;;6.00;5.13;;;;;;;;;;2084340;28;20456;-68
2022/11/23 07:48:35;;;;;;;7.85;5.88;;;;;;;;;;2082610;28;20033;-68
2022/11/23 07:49:53;;;;;;;6.05;5.00;;;;;;;;;;2084615;28;20032;-68
2022/11/23 07:51:12;;;;;;;5.57;4.80;;;;;;;;;;2081300;28;20037;-68
2022/11/23 07:52:31;;;;;;;6.72;4.55;;;;;;;;;;2083768;28;20446;-68
2022/11/23 07:53:50;;;;;;;5.78;5.15;;;;;;;;;;2078953;28;20025;-68
2022/11/23 07:55:09;;;;;;;6.10;5.60;;;;;;;;;;2083704;28;20025;-69
2022/11/23 07:56:28;;;;;;;6.00;4.95;;;;;;;;;;2082731;28;20398;-68
2022/11/23 07:57:50;;;;;;;5.57;5.13;;;;;;;;;;2080802;28;20061;-68